createdAt,value
2019-01-23T01:39:57.389Z,1.50
2019-01-23T01:42:26.594Z,1.10
2019-01-23T01:44:55.813Z,1.00
2019-01-23T06:35:12.884Z,1.10
2019-01-23T06:37:41.861Z,0.40
2019-01-23T06:40:11.523Z,0.30
2019-01-23T06:42:40.537Z,0.30
2019-01-23T06:45:11.352Z,0.20
2019-01-23T06:47:40.458Z,0.10
2019-01-23T12:02:31.004Z,0.10
2019-01-23T12:05:00.203Z,1.30
2019-01-23T12:07:29.330Z,1.30
2019-01-23T12:09:58.394Z,1.40
2019-01-23T12:12:27.493Z,1.40
2019-01-23T12:14:56.571Z,1.40
2019-01-23T12:17:25.700Z,1.40
2019-01-23T12:19:54.786Z,1.50
2019-01-23T12:22:23.856Z,1.50
2019-01-23T12:24:52.925Z,1.30
2019-01-23T12:27:22.104Z,1.30
2019-01-23T12:29:51.167Z,1.30
2019-01-23T12:32:20.259Z,1.30
2019-01-23T12:34:49.399Z,1.20
2019-01-23T12:37:18.466Z,1.30
2019-01-23T12:39:47.522Z,1.30
2019-01-23T12:42:16.602Z,1.30
2019-01-23T12:44:45.670Z,1.30
2019-01-23T12:47:14.695Z,1.40
2019-01-23T12:49:43.767Z,1.20
2019-01-23T12:52:12.850Z,1.10
2019-01-23T12:54:41.911Z,1.10
2019-01-23T12:57:10.925Z,1.20
2019-01-23T12:59:40.147Z,1.20
2019-01-23T13:02:09.832Z,0.70
2019-01-23T13:04:39.031Z,1.00
2019-01-23T13:07:08.070Z,1.00
2019-01-23T13:09:37.174Z,0.90
2019-01-23T13:12:06.150Z,1.00
2019-01-23T13:14:35.166Z,1.00
2019-01-23T13:17:04.279Z,1.00
2019-01-23T13:19:33.399Z,1.10
2019-01-23T13:22:02.503Z,1.00
2019-01-23T13:24:31.590Z,1.00
2019-01-23T13:27:00.683Z,1.00
2019-01-23T13:29:29.774Z,1.00
2019-01-23T13:31:58.857Z,1.00
2019-01-23T13:34:27.934Z,0.90
2019-01-23T13:36:57.004Z,0.90
2019-01-23T13:39:26.063Z,0.80
2019-01-23T13:41:55.166Z,0.80
2019-01-23T13:44:24.251Z,0.80
2019-01-23T13:46:53.319Z,0.90
2019-01-23T13:49:22.495Z,0.90
2019-01-23T13:51:51.479Z,0.80
2019-01-23T13:54:20.555Z,0.80
2019-01-23T13:56:49.659Z,0.90
2019-01-23T13:59:18.716Z,0.90
2019-01-23T14:01:47.744Z,0.90
2019-01-23T14:04:16.830Z,1.00
2019-01-23T14:06:45.905Z,1.00
2019-01-23T14:09:14.978Z,1.10
2019-01-23T14:11:44.102Z,0.90
2019-01-23T14:14:13.198Z,0.80
2019-01-23T14:16:42.294Z,0.90
2019-01-23T14:19:11.381Z,0.90
2019-01-23T14:21:40.479Z,1.00
2019-01-23T14:24:09.553Z,0.90
2019-01-23T14:26:38.647Z,0.80
2019-01-23T18:02:20.503Z,0.80
2019-01-23T18:04:49.598Z,0.80
2019-01-23T23:44:42.066Z,0.80
2019-01-23T23:47:11.274Z,0.90
2019-01-23T23:49:40.343Z,0.90
2019-01-23T23:52:09.331Z,0.90
2019-01-23T23:54:38.420Z,0.90
2019-01-23T23:57:07.509Z,0.90
2019-01-23T23:59:36.612Z,0.90
